createdAt,value
2018-07-14T00:00:46.655Z,17.76
2018-07-14T00:03:15.292Z,17.74
2018-07-14T00:05:44.030Z,17.73
2018-07-14T00:08:12.796Z,17.69
2018-07-14T00:10:41.423Z,17.72
2018-07-14T00:13:10.060Z,17.71
2018-07-14T00:15:38.765Z,17.66
2018-07-14T00:18:07.372Z,17.58
2018-07-14T00:20:35.956Z,17.52
2018-07-14T00:23:04.591Z,17.49
2018-07-14T00:25:38.519Z,17.37
2018-07-14T00:28:07.160Z,17.34
2018-07-14T00:31:38.274Z,17.27
2018-07-14T00:34:07.020Z,17.16
2018-07-14T00:36:35.673Z,17.12
2018-07-14T00:39:05.103Z,17.08
2018-07-14T00:41:33.717Z,17.08
2018-07-14T00:44:02.351Z,17.02
2018-07-14T00:46:31.062Z,16.91
2018-07-14T00:48:59.646Z,16.93
2018-07-14T00:51:28.398Z,16.91
2018-07-14T00:53:57.455Z,16.91
2018-07-14T00:56:26.220Z,16.90
2018-07-14T00:58:54.923Z,16.87
2018-07-14T01:01:23.526Z,16.82
2018-07-14T01:03:52.148Z,16.78
2018-07-14T01:06:20.903Z,16.77
2018-07-14T01:08:49.559Z,16.78
2018-07-14T01:11:18.257Z,16.73
2018-07-14T01:13:46.950Z,16.69
2018-07-14T01:16:15.571Z,16.69
2018-07-14T01:18:44.175Z,16.69
2018-07-14T01:21:12.892Z,16.68
2018-07-14T01:23:41.509Z,16.61
2018-07-14T01:26:10.120Z,16.60
2018-07-14T01:28:38.772Z,16.60
2018-07-14T01:31:07.579Z,16.57
2018-07-14T01:33:36.222Z,16.53
2018-07-14T01:36:04.908Z,16.49
2018-07-14T01:38:33.551Z,16.46
2018-07-14T01:41:02.218Z,16.47
2018-07-14T01:43:31.212Z,16.47
2018-07-14T01:45:59.871Z,16.42
2018-07-14T01:48:28.609Z,16.38
2018-07-14T01:50:57.207Z,16.36
2018-07-14T01:53:25.966Z,16.37
2018-07-14T01:55:54.774Z,16.36
2018-07-14T01:58:23.537Z,16.36
2018-07-14T02:00:52.196Z,16.37
2018-07-14T02:03:20.891Z,16.38
2018-07-14T02:05:49.525Z,16.35
2018-07-14T02:08:18.165Z,16.35
2018-07-14T02:10:46.893Z,16.33
2018-07-14T02:13:15.647Z,16.33
2018-07-14T02:15:44.479Z,16.33
2018-07-14T02:18:13.238Z,16.31
2018-07-14T02:20:41.900Z,16.33
2018-07-14T02:23:10.539Z,16.37
2018-07-14T02:25:39.146Z,16.43
2018-07-14T02:28:07.879Z,16.44
2018-07-14T02:30:36.601Z,16.43
2018-07-14T02:33:05.301Z,16.42
2018-07-14T02:35:34.022Z,16.44
2018-07-14T02:38:02.590Z,16.46
2018-07-14T02:40:31.299Z,16.45
2018-07-14T02:42:59.971Z,16.49
2018-07-14T02:45:28.675Z,16.55
2018-07-14T02:47:57.324Z,16.59
2018-07-14T02:50:26.069Z,16.65
2018-07-14T02:52:54.991Z,16.65
2018-07-14T02:55:23.590Z,16.70
2018-07-14T02:57:52.414Z,16.66
2018-07-14T03:00:21.039Z,16.67
2018-07-14T03:02:49.594Z,16.66
2018-07-14T03:05:18.133Z,16.66
2018-07-14T03:07:47.089Z,16.65
2018-07-14T03:10:15.711Z,16.69
2018-07-14T03:12:44.464Z,16.74
2018-07-14T03:15:13.032Z,16.70
2018-07-14T03:17:41.680Z,16.70
2018-07-14T03:20:10.309Z,16.74
2018-07-14T03:22:39.028Z,16.81
2018-07-14T03:25:07.712Z,16.84
2018-07-14T03:27:36.337Z,16.85
2018-07-14T03:30:05.031Z,16.89
2018-07-14T03:32:33.635Z,16.91
2018-07-14T03:35:02.455Z,16.94
2018-07-14T03:37:31.111Z,16.99
2018-07-14T03:39:59.699Z,17.00
2018-07-14T03:42:28.306Z,17.02
2018-07-14T03:44:56.915Z,17.04
2018-07-14T03:47:25.620Z,17.03
2018-07-14T03:49:54.266Z,17.03
2018-07-14T03:52:22.936Z,17.02
2018-07-14T03:54:51.584Z,17.05
2018-07-14T03:57:20.232Z,17.06
2018-07-14T03:59:49.003Z,17.05
2018-07-14T04:02:17.811Z,17.03
2018-07-14T04:04:46.477Z,17.00
2018-07-14T04:07:15.147Z,17.01
2018-07-14T04:09:43.990Z,17.03
2018-07-14T04:12:12.982Z,17.04
2018-07-14T04:14:41.835Z,17.04
2018-07-14T04:17:10.610Z,17.07
2018-07-14T04:19:39.371Z,17.11
2018-07-14T04:22:07.963Z,17.18
2018-07-14T04:24:36.874Z,17.08
2018-07-14T04:27:05.526Z,17.25
2018-07-14T04:29:34.368Z,17.29
2018-07-14T04:32:03.038Z,17.38
2018-07-14T04:34:31.726Z,17.44
2018-07-14T04:37:00.492Z,17.53
2018-07-14T04:39:29.109Z,17.58
2018-07-14T04:41:57.800Z,17.53
2018-07-14T04:44:26.600Z,17.57
2018-07-14T04:46:55.437Z,17.59
2018-07-14T04:49:24.118Z,17.66
2018-07-14T04:51:52.801Z,17.73
2018-07-14T04:54:21.523Z,17.87
2018-07-14T04:56:50.092Z,17.80
2018-07-14T04:59:18.697Z,17.84
2018-07-14T05:01:47.739Z,18.00
2018-07-14T05:04:16.404Z,17.95
2018-07-14T05:06:45.001Z,18.10
2018-07-14T05:09:13.775Z,18.22
2018-07-14T05:11:42.377Z,18.31
2018-07-14T05:14:10.979Z,18.55
2018-07-14T05:16:39.707Z,18.81
2018-07-14T05:19:08.366Z,19.02
2018-07-14T05:21:37.058Z,19.23
2018-07-14T05:24:05.784Z,19.46
2018-07-14T05:26:34.549Z,19.63
2018-07-14T05:29:03.183Z,19.81
2018-07-14T05:31:31.910Z,19.91
2018-07-14T05:34:00.542Z,20.01
2018-07-14T05:36:29.141Z,20.21
2018-07-14T05:38:57.791Z,20.39
2018-07-14T05:41:26.402Z,20.54
2018-07-14T05:43:55.320Z,20.65
2018-07-14T05:46:23.922Z,20.69
2018-07-14T05:48:52.581Z,20.63
2018-07-14T05:51:21.244Z,20.64
2018-07-14T05:53:49.866Z,20.74
2018-07-14T05:56:18.552Z,20.88
2018-07-14T05:58:47.334Z,20.93
2018-07-14T06:01:16.219Z,20.99
2018-07-14T06:03:45.110Z,20.86
2018-07-14T06:06:13.987Z,20.81
2018-07-14T06:08:42.760Z,20.70
2018-07-14T06:11:11.448Z,20.79
2018-07-14T06:13:40.053Z,20.88
2018-07-14T06:16:08.709Z,21.13
2018-07-14T06:18:37.554Z,21.31
2018-07-14T06:21:06.229Z,21.45
2018-07-14T06:23:34.967Z,21.58
2018-07-14T06:26:03.740Z,21.61
2018-07-14T06:28:32.412Z,21.52
2018-07-14T06:31:00.959Z,21.62
2018-07-14T06:33:29.593Z,21.88
2018-07-14T06:35:58.232Z,22.02
2018-07-14T06:38:26.939Z,21.95
2018-07-14T06:40:55.570Z,21.85
2018-07-14T06:43:24.223Z,21.80
2018-07-14T06:45:52.902Z,21.61
2018-07-14T06:48:21.461Z,21.69
2018-07-14T06:50:50.108Z,21.91
2018-07-14T06:53:18.737Z,22.18
2018-07-14T06:55:47.752Z,22.27
2018-07-14T06:58:16.462Z,22.44
2018-07-14T07:00:45.033Z,22.68
2018-07-14T07:03:13.778Z,22.94
2018-07-14T07:05:42.363Z,23.18
2018-07-14T07:08:10.999Z,23.34
2018-07-14T07:10:39.839Z,23.38
2018-07-14T07:13:08.440Z,23.39
2018-07-14T07:15:37.109Z,23.29
2018-07-14T07:18:05.753Z,23.36
2018-07-14T07:20:34.410Z,23.22
2018-07-14T07:23:03.179Z,23.26
2018-07-14T07:25:31.943Z,23.38
2018-07-14T07:28:00.596Z,23.47
2018-07-14T07:30:29.266Z,23.43
2018-07-14T07:32:58.073Z,23.57
2018-07-14T07:35:26.849Z,23.81
2018-07-14T07:37:55.457Z,23.97
2018-07-14T07:40:24.024Z,24.07
2018-07-14T07:42:52.686Z,24.16
2018-07-14T07:45:21.401Z,24.08
2018-07-14T07:47:50.066Z,24.08
2018-07-14T07:50:18.663Z,24.28
2018-07-14T07:52:47.378Z,24.34
2018-07-14T07:55:16.115Z,24.50
2018-07-14T07:57:44.872Z,24.67
2018-07-14T08:00:13.662Z,24.85
2018-07-14T08:02:42.351Z,24.96
2018-07-14T08:05:11.016Z,24.95
2018-07-14T08:07:39.914Z,24.66
2018-07-14T08:10:08.541Z,24.27
2018-07-14T08:12:37.332Z,24.34
2018-07-14T08:15:06.005Z,24.69
2018-07-14T08:17:34.695Z,25.06
2018-07-14T08:23:34.501Z,25.56
2018-07-14T08:26:03.177Z,25.77
2018-07-14T08:28:31.872Z,25.74
2018-07-14T08:31:00.440Z,25.64
2018-07-14T08:33:29.277Z,25.95
2018-07-14T08:35:57.964Z,26.22
2018-07-14T08:38:26.646Z,26.23
2018-07-14T08:40:55.376Z,26.50
2018-07-14T08:43:24.063Z,26.53
2018-07-14T08:45:52.782Z,26.45
2018-07-14T08:48:21.573Z,26.57
2018-07-14T08:50:50.224Z,26.49
2018-07-14T08:53:18.925Z,26.55
2018-07-14T08:55:48.047Z,26.63
2018-07-14T08:58:16.717Z,26.82
2018-07-14T09:00:45.352Z,26.86
2018-07-14T09:03:14.032Z,27.02
2018-07-14T09:05:42.663Z,27.15
2018-07-14T09:08:11.561Z,27.32
2018-07-14T09:10:40.273Z,27.47
2018-07-14T09:13:08.991Z,27.43
2018-07-14T09:15:37.614Z,27.46
2018-07-14T09:18:06.337Z,27.70
2018-07-14T09:20:35.097Z,27.71
2018-07-14T09:23:03.738Z,27.71
2018-07-14T09:25:32.419Z,27.00
2018-07-14T09:28:01.112Z,26.84
2018-07-14T09:30:29.776Z,26.92
2018-07-14T09:32:58.421Z,27.48
2018-07-14T09:35:27.211Z,27.70
2018-07-14T09:37:56.010Z,27.87
2018-07-14T09:40:24.626Z,27.76
2018-07-14T09:42:53.550Z,27.94
2018-07-14T09:45:22.254Z,28.13
2018-07-14T09:47:50.979Z,28.39
2018-07-14T09:50:19.599Z,28.38
2018-07-14T09:52:48.261Z,27.46
2018-07-14T09:55:16.936Z,28.00
2018-07-14T09:57:45.698Z,28.12
2018-07-14T10:00:19.451Z,28.20
2018-07-14T10:02:48.088Z,28.49
2018-07-14T10:05:16.742Z,27.46
2018-07-14T10:07:45.488Z,27.90
2018-07-14T10:10:14.460Z,28.13
2018-07-14T10:12:43.141Z,28.51
2018-07-14T10:15:12.039Z,28.66
2018-07-14T10:17:40.810Z,28.42
2018-07-14T10:20:09.355Z,28.16
2018-07-14T10:22:38.042Z,28.50
2018-07-14T10:25:06.998Z,28.57
2018-07-14T10:27:35.877Z,28.75
2018-07-14T10:30:04.502Z,29.22
2018-07-14T10:32:33.170Z,29.38
2018-07-14T10:35:01.864Z,29.33
2018-07-14T10:37:30.607Z,29.32
2018-07-14T10:39:59.337Z,29.39
2018-07-14T10:42:28.113Z,29.63
2018-07-14T10:44:56.821Z,29.80
2018-07-14T10:47:25.513Z,30.21
2018-07-14T10:49:54.163Z,29.95
2018-07-14T10:52:22.870Z,30.34
2018-07-14T10:54:51.524Z,30.67
2018-07-14T10:57:20.367Z,30.37
2018-07-14T10:59:49.093Z,29.28
2018-07-14T11:02:17.774Z,29.88
2018-07-14T11:04:46.509Z,30.19
2018-07-14T11:07:15.198Z,30.51
2018-07-14T11:09:43.828Z,30.81
2018-07-14T11:12:12.594Z,30.97
2018-07-14T11:14:41.304Z,31.07
2018-07-14T11:17:09.990Z,31.23
2018-07-14T11:19:38.641Z,31.76
2018-07-14T11:22:07.406Z,32.34
2018-07-14T11:24:36.094Z,32.23
2018-07-14T11:27:04.750Z,32.34
2018-07-14T11:29:33.568Z,32.11
2018-07-14T11:32:02.809Z,31.52
2018-07-14T11:34:31.470Z,31.61
2018-07-14T11:37:00.128Z,31.17
2018-07-14T11:39:28.806Z,30.79
2018-07-14T11:41:57.448Z,30.20
2018-07-14T11:44:26.412Z,29.63
2018-07-14T11:46:55.095Z,29.73
2018-07-14T11:49:23.854Z,30.01
2018-07-14T11:51:52.542Z,30.14
2018-07-14T11:54:21.411Z,30.33
2018-07-14T11:56:50.174Z,29.98
2018-07-14T11:59:18.950Z,30.13
2018-07-14T12:01:47.719Z,30.29
2018-07-14T12:04:16.629Z,29.82
2018-07-14T12:06:45.318Z,29.33
2018-07-14T12:09:13.979Z,28.94
2018-07-14T12:11:42.588Z,28.76
2018-07-14T12:14:11.519Z,28.61
2018-07-14T12:16:40.313Z,28.86
2018-07-14T12:19:09.227Z,29.18
2018-07-14T12:21:37.889Z,29.27
2018-07-14T12:24:06.653Z,29.35
2018-07-14T12:26:35.359Z,29.48
2018-07-14T12:29:04.067Z,29.57
2018-07-14T12:31:32.823Z,29.65
2018-07-14T12:34:01.532Z,29.73
2018-07-14T12:36:30.311Z,29.69
2018-07-14T12:38:58.999Z,29.25
2018-07-14T12:41:27.742Z,28.64
2018-07-14T12:43:56.395Z,28.62
2018-07-14T12:46:25.104Z,28.54
2018-07-14T12:48:53.909Z,28.35
2018-07-14T12:51:22.561Z,28.62
2018-07-14T12:53:51.472Z,29.08
2018-07-14T12:56:20.113Z,29.51
2018-07-14T12:58:49.033Z,29.55
2018-07-14T13:01:17.648Z,29.73
2018-07-14T13:03:46.297Z,30.09
2018-07-14T13:06:15.003Z,30.29
2018-07-14T13:08:43.640Z,30.63
2018-07-14T13:11:12.280Z,30.75
2018-07-14T13:13:41.013Z,31.02
2018-07-14T13:16:09.698Z,31.30
2018-07-14T13:18:38.323Z,31.68
2018-07-14T13:21:07.134Z,32.24
2018-07-14T13:23:36.203Z,32.63
2018-07-14T13:26:04.819Z,33.29
2018-07-14T13:28:33.571Z,33.63
2018-07-14T13:31:02.360Z,34.48
2018-07-14T13:33:31.157Z,35.90
2018-07-14T13:35:59.880Z,37.14
2018-07-14T13:38:28.462Z,37.87
2018-07-14T13:40:57.069Z,37.28
2018-07-14T13:43:25.713Z,37.59
2018-07-14T13:45:54.421Z,38.34
2018-07-14T13:48:23.070Z,37.62
2018-07-14T13:50:51.785Z,35.18
2018-07-14T13:53:20.533Z,35.93
2018-07-14T13:55:49.307Z,34.75
2018-07-14T13:58:17.974Z,35.15
2018-07-14T14:00:46.701Z,33.95
2018-07-14T14:03:15.380Z,33.47
2018-07-14T14:05:44.068Z,32.66
2018-07-14T14:08:12.797Z,32.52
2018-07-14T14:10:41.472Z,32.66
2018-07-14T14:13:10.262Z,32.19
2018-07-14T14:15:39.313Z,32.20
2018-07-14T14:18:07.984Z,31.34
2018-07-14T14:20:36.643Z,30.58
2018-07-14T14:23:05.247Z,30.38
2018-07-14T14:25:34.181Z,29.92
2018-07-14T14:28:02.883Z,29.78
2018-07-14T14:30:31.551Z,29.65
2018-07-14T14:33:00.252Z,29.14
2018-07-14T14:35:29.019Z,28.86
2018-07-14T14:37:57.773Z,28.42
2018-07-14T14:40:26.579Z,28.43
2018-07-14T14:42:55.242Z,28.31
2018-07-14T14:45:23.850Z,28.51
2018-07-14T14:47:52.675Z,29.92
2018-07-14T14:50:21.532Z,30.41
2018-07-14T14:52:50.326Z,30.42
2018-07-14T14:55:19.043Z,29.71
2018-07-14T14:57:47.643Z,29.36
2018-07-14T15:00:16.348Z,29.25
2018-07-14T15:02:45.505Z,30.51
2018-07-14T15:05:14.157Z,32.42
2018-07-14T15:07:43.071Z,33.41
2018-07-14T15:10:11.785Z,33.62
2018-07-14T15:12:40.397Z,33.42
2018-07-14T15:15:09.193Z,33.53
2018-07-14T15:17:38.275Z,33.96
2018-07-14T15:20:07.074Z,33.63
2018-07-14T15:22:35.866Z,33.92
2018-07-14T15:25:04.667Z,33.84
2018-07-14T15:27:33.575Z,32.90
2018-07-14T15:30:02.313Z,31.80
2018-07-14T15:32:31.077Z,31.03
2018-07-14T15:34:59.813Z,30.40
2018-07-14T15:37:28.410Z,29.93
2018-07-14T15:39:57.049Z,29.37
2018-07-14T15:42:25.763Z,28.85
2018-07-14T15:44:54.339Z,28.56
2018-07-14T15:47:23.026Z,28.47
2018-07-14T15:49:51.900Z,28.42
2018-07-14T15:52:20.585Z,28.41
2018-07-14T15:54:49.189Z,28.41
2018-07-14T15:57:17.861Z,28.53
2018-07-14T15:59:46.735Z,28.46
2018-07-14T16:02:15.380Z,28.46
2018-07-14T16:04:44.077Z,28.44
2018-07-14T16:07:12.984Z,28.26
2018-07-14T16:09:41.591Z,28.04
2018-07-14T16:12:10.404Z,27.87
2018-07-14T16:14:41.490Z,27.86
2018-07-14T16:17:10.575Z,27.70
2018-07-14T16:19:39.285Z,27.77
2018-07-14T16:22:08.290Z,27.86
2018-07-14T16:24:36.967Z,27.89
2018-07-14T16:27:05.690Z,27.87
2018-07-14T16:29:34.376Z,27.93
2018-07-14T16:32:03.174Z,27.92
2018-07-14T16:34:31.814Z,27.75
2018-07-14T16:37:00.544Z,27.87
2018-07-14T16:39:29.113Z,27.91
2018-07-14T16:41:57.811Z,27.90
2018-07-14T16:44:26.696Z,27.77
2018-07-14T16:46:55.426Z,27.73
2018-07-14T16:49:24.161Z,27.54
2018-07-14T16:51:53.315Z,27.39
2018-07-14T16:54:22.114Z,27.25
2018-07-14T16:56:51.165Z,27.10
2018-07-14T16:59:19.836Z,27.14
2018-07-14T17:01:48.840Z,27.23
2018-07-14T17:04:17.557Z,27.11
2018-07-14T17:06:46.215Z,27.20
2018-07-14T17:09:14.891Z,27.13
2018-07-14T17:11:43.614Z,27.14
2018-07-14T17:14:12.308Z,27.18
2018-07-14T17:16:41.147Z,27.19
2018-07-14T17:19:09.951Z,27.06
2018-07-14T17:21:38.570Z,26.97
2018-07-14T17:24:07.226Z,26.90
2018-07-14T17:26:35.970Z,26.93
2018-07-14T17:29:04.771Z,26.84
2018-07-14T17:31:33.653Z,26.74
2018-07-14T17:34:02.325Z,26.76
2018-07-14T17:36:30.955Z,26.78
2018-07-14T17:38:59.602Z,26.77
2018-07-14T17:41:28.384Z,26.77
2018-07-14T17:43:57.145Z,26.70
2018-07-14T17:46:25.821Z,26.65
2018-07-14T17:48:54.511Z,26.61
2018-07-14T17:51:23.275Z,26.64
2018-07-14T17:53:52.092Z,26.70
2018-07-14T17:56:20.700Z,26.67
2018-07-14T17:58:49.640Z,26.61
2018-07-14T18:01:18.351Z,26.60
2018-07-14T18:03:46.939Z,26.64
2018-07-14T18:06:15.660Z,26.63
2018-07-14T18:08:44.312Z,26.61
2018-07-14T18:11:12.959Z,26.55
2018-07-14T18:14:11.839Z,26.51
2018-07-14T18:16:40.798Z,26.46
2018-07-14T18:19:09.423Z,26.44
2018-07-14T18:21:38.136Z,26.40
2018-07-14T18:24:06.919Z,26.40
2018-07-14T18:26:35.591Z,26.40
2018-07-14T18:29:04.253Z,26.36
2018-07-14T18:31:32.912Z,26.32
2018-07-14T18:34:01.565Z,26.25
2018-07-14T18:36:30.132Z,26.23
2018-07-14T18:38:58.749Z,26.16
2018-07-14T18:41:27.331Z,26.09
2018-07-14T18:43:56.034Z,26.10
2018-07-14T18:46:24.617Z,26.09
2018-07-14T18:51:52.399Z,25.92
2018-07-14T18:54:21.095Z,25.21
2018-07-14T18:56:49.738Z,25.92
2018-07-14T18:59:18.440Z,25.88
2018-07-14T19:01:47.155Z,25.85
2018-07-14T19:04:15.922Z,25.82
2018-07-14T19:06:44.610Z,25.78
2018-07-14T19:09:13.321Z,25.70
2018-07-14T19:11:42.033Z,25.63
2018-07-14T19:14:10.673Z,25.57
2018-07-14T19:16:39.344Z,25.51
2018-07-14T19:19:07.986Z,25.42
2018-07-14T19:21:36.659Z,25.33
2018-07-14T19:24:05.490Z,25.30
2018-07-14T19:26:34.263Z,25.21
2018-07-14T19:29:03.028Z,25.12
2018-07-14T19:31:31.696Z,25.00
2018-07-14T19:34:00.395Z,25.01
2018-07-14T19:36:29.213Z,24.98
2018-07-14T19:38:57.858Z,24.93
2018-07-14T19:41:26.666Z,24.87
2018-07-14T19:43:55.509Z,24.80
2018-07-14T19:46:24.142Z,24.74
2018-07-14T19:48:52.929Z,24.65
2018-07-14T19:51:21.631Z,24.62
2018-07-14T19:53:50.383Z,24.59
2018-07-14T19:56:19.528Z,24.55
2018-07-14T19:58:48.362Z,24.43
2018-07-14T20:01:16.983Z,24.39
2018-07-14T20:03:45.565Z,24.34
2018-07-14T20:06:14.425Z,24.28
2018-07-14T20:08:43.039Z,24.21
2018-07-14T20:11:11.816Z,24.17
2018-07-14T20:13:40.505Z,24.12
2018-07-14T20:16:09.995Z,24.11
2018-07-14T20:18:39.012Z,24.05
2018-07-14T20:21:07.639Z,23.96
2018-07-14T20:23:36.654Z,23.89
2018-07-14T20:26:05.343Z,23.84
2018-07-14T20:28:34.067Z,23.79
2018-07-14T20:31:02.734Z,23.73
2018-07-14T20:33:31.516Z,23.63
2018-07-14T20:36:00.140Z,23.53
2018-07-14T20:38:29.122Z,23.45
2018-07-14T20:40:57.866Z,23.41
2018-07-14T20:43:26.474Z,23.35
2018-07-14T20:45:56.488Z,23.31
2018-07-14T20:48:25.180Z,23.21
2018-07-14T20:50:53.835Z,23.09
2018-07-14T20:53:23.448Z,23.09
2018-07-14T20:55:52.523Z,23.04
2018-07-14T20:58:21.171Z,23.00
2018-07-14T21:00:49.936Z,22.90
2018-07-14T21:03:18.564Z,22.83
2018-07-14T21:05:47.269Z,22.80
2018-07-14T21:08:15.903Z,22.69
2018-07-14T21:10:44.590Z,22.66
2018-07-14T21:13:13.232Z,22.59
2018-07-14T21:15:42.888Z,22.56
2018-07-14T21:18:11.519Z,22.46
2018-07-14T21:20:40.218Z,22.44
2018-07-14T21:23:08.822Z,22.40
2018-07-14T21:25:37.500Z,22.37
2018-07-14T21:28:06.249Z,22.30
2018-07-14T21:30:34.919Z,22.23
2018-07-14T21:33:03.719Z,22.14
2018-07-14T21:35:32.455Z,22.02
2018-07-14T21:38:01.134Z,21.95
2018-07-14T21:40:29.804Z,21.83
2018-07-14T21:42:58.429Z,21.73
2018-07-14T21:45:27.117Z,21.61
2018-07-14T21:47:56.059Z,21.59
2018-07-14T21:50:24.794Z,21.51
2018-07-14T21:52:53.352Z,21.43
2018-07-14T21:55:22.058Z,21.36
2018-07-14T21:57:50.855Z,21.32
2018-07-14T22:00:33.596Z,21.27
2018-07-14T22:03:04.667Z,21.21
2018-07-14T22:05:33.402Z,21.15
2018-07-14T22:08:02.128Z,21.11
2018-07-14T22:10:30.766Z,21.05
2018-07-14T22:12:59.394Z,20.97
2018-07-14T22:15:28.095Z,20.90
2018-07-14T22:17:56.838Z,20.85
2018-07-14T22:20:25.659Z,20.77
2018-07-14T22:22:54.578Z,20.72
2018-07-14T22:25:23.408Z,20.66
2018-07-14T22:27:52.115Z,20.62
2018-07-14T22:30:20.966Z,20.54
2018-07-14T22:32:49.709Z,20.47
2018-07-14T22:35:18.568Z,20.41
2018-07-14T22:37:47.144Z,20.32
2018-07-14T22:40:15.843Z,20.21
2018-07-14T22:42:44.514Z,20.12
2018-07-14T22:45:13.321Z,20.03
2018-07-14T22:47:42.104Z,20.02
2018-07-14T22:50:10.924Z,19.98
2018-07-14T22:52:39.810Z,19.93
2018-07-14T22:55:08.691Z,18.97
2018-07-14T22:57:37.389Z,19.83
2018-07-14T23:00:07.116Z,19.77
2018-07-14T23:02:35.810Z,19.69
2018-07-14T23:05:04.451Z,19.66
2018-07-14T23:07:33.099Z,19.62
2018-07-14T23:10:01.791Z,19.54
2018-07-14T23:12:30.583Z,19.47
2018-07-14T23:14:59.321Z,19.46
2018-07-14T23:17:27.943Z,19.38
2018-07-14T23:19:56.879Z,19.31
2018-07-14T23:22:25.545Z,19.31
2018-07-14T23:24:54.256Z,19.33
2018-07-14T23:27:22.943Z,19.35
2018-07-14T23:29:51.572Z,19.30
2018-07-14T23:32:20.287Z,19.28
2018-07-14T23:34:49.020Z,19.27
2018-07-14T23:37:17.658Z,18.41
2018-07-14T23:39:46.430Z,19.24
2018-07-14T23:42:15.114Z,19.20
2018-07-14T23:44:43.824Z,19.16
2018-07-14T23:47:12.595Z,19.08
2018-07-14T23:49:41.278Z,19.07
2018-07-14T23:52:09.888Z,19.04
2018-07-14T23:54:38.787Z,19.01
2018-07-14T23:57:07.702Z,18.97
2018-07-14T23:59:36.548Z,18.93
